sensor_id;sensor_type;location;lat;lon;timestamp;temperature;humidity
8226;DHT22;4154;48.810;9.012;2022-09-24T00:01:21;12.00;99.90
8226;DHT22;4154;48.810;9.012;2022-09-24T00:04:04;12.00;99.90
8226;DHT22;4154;48.810;9.012;2022-09-24T00:06:46;12.00;99.90
8226;DHT22;4154;48.810;9.012;2022-09-24T00:09:14;12.10;99.90
8226;DHT22;4154;48.810;9.012;2022-09-24T00:11:43;12.00;99.90
8226;DHT22;4154;48.810;9.012;2022-09-24T00:16:38;12.00;99.90
8226;DHT22;4154;48.810;9.012;2022-09-24T00:19:04;12.00;99.90
8226;DHT22;4154;48.810;9.012;2022-09-24T00:21:32;12.10;99.90
8226;DHT22;4154;48.810;9.012;2022-09-24T00:24:01;12.10;99.90
8226;DHT22;4154;48.810;9.012;2022-09-24T00:26:29;12.00;99.90
8226;DHT22;4154;48.810;9.012;2022-09-24T00:29:17;12.10;99.90
8226;DHT22;4154;48.810;9.012;2022-09-24T00:31:45;12.10;99.90
8226;DHT22;4154;48.810;9.012;2022-09-24T00:34:11;12.00;99.90
8226;DHT22;4154;48.810;9.012;2022-09-24T00:36:37;12.00;99.90
8226;DHT22;4154;48.810;9.012;2022-09-24T00:39:03;12.00;99.90
8226;DHT22;4154;48.810;9.012;2022-09-24T00:41:32;12.00;99.90
8226;DHT22;4154;48.810;9.012;2022-09-24T00:44:00;11.90;99.90
8226;DHT22;4154;48.810;9.012;2022-09-24T00:49:24;12.00;99.90
8226;DHT22;4154;48.810;9.012;2022-09-24T00:51:51;12.00;99.90
8226;DHT22;4154;48.810;9.012;2022-09-24T00:54:26;12.00;99.90
8226;DHT22;4154;48.810;9.012;2022-09-24T00:56:54;12.00;99.90
8226;DHT22;4154;48.810;9.012;2022-09-24T00:59:24;12.00;99.90
8226;DHT22;4154;48.810;9.012;2022-09-24T01:01:51;11.90;99.90
8226;DHT22;4154;48.810;9.012;2022-09-24T01:04:20;11.80;99.90
8226;DHT22;4154;48.810;9.012;2022-09-24T01:06:49;11.80;99.90
8226;DHT22;4154;48.810;9.012;2022-09-24T01:09:17;11.80;99.90
8226;DHT22;4154;48.810;9.012;2022-09-24T01:12:02;11.80;99.90
8226;DHT22;4154;48.810;9.012;2022-09-24T01:17:45;11.70;99.90
8226;DHT22;4154;48.810;9.012;2022-09-24T01:23:35;11.50;99.90
8226;DHT22;4154;48.810;9.012;2022-09-24T01:29:01;11.70;99.90
8226;DHT22;4154;48.810;9.012;2022-09-24T01:31:40;11.70;99.90
8226;DHT22;4154;48.810;9.012;2022-09-24T01:34:15;11.60;99.90
8226;DHT22;4154;48.810;9.012;2022-09-24T01:36:47;11.60;99.90
8226;DHT22;4154;48.810;9.012;2022-09-24T01:39:17;11.50;99.90
8226;DHT22;4154;48.810;9.012;2022-09-24T01:41:45;11.50;99.90
8226;DHT22;4154;48.810;9.012;2022-09-24T01:44:12;11.50;99.90
8226;DHT22;4154;48.810;9.012;2022-09-24T01:46:43;11.50;99.90
8226;DHT22;4154;48.810;9.012;2022-09-24T01:49:09;11.50;99.90
8226;DHT22;4154;48.810;9.012;2022-09-24T01:51:40;11.40;99.90
8226;DHT22;4154;48.810;9.012;2022-09-24T01:54:25;11.50;99.90
8226;DHT22;4154;48.810;9.012;2022-09-24T01:57:00;11.50;99.90
8226;DHT22;4154;48.810;9.012;2022-09-24T01:59:47;11.50;99.90
8226;DHT22;4154;48.810;9.012;2022-09-24T02:02:32;11.50;99.90
8226;DHT22;4154;48.810;9.012;2022-09-24T02:05:33;11.50;99.90
8226;DHT22;4154;48.810;9.012;2022-09-24T02:08:21;11.50;99.90
8226;DHT22;4154;48.810;9.012;2022-09-24T02:11:11;11.50;99.90
8226;DHT22;4154;48.810;9.012;2022-09-24T02:13:59;11.50;99.90
8226;DHT22;4154;48.810;9.012;2022-09-24T02:16:35;11.50;99.90
8226;DHT22;4154;48.810;9.012;2022-09-24T02:19:10;11.50;99.90
8226;DHT22;4154;48.810;9.012;2022-09-24T02:21:40;11.40;99.90
8226;DHT22;4154;48.810;9.012;2022-09-24T02:24:11;11.50;99.90
8226;DHT22;4154;48.810;9.012;2022-09-24T02:26:41;11.50;99.90
8226;DHT22;4154;48.810;9.012;2022-09-24T02:31:37;11.40;99.90
8226;DHT22;4154;48.810;9.012;2022-09-24T02:34:08;11.40;99.90
8226;DHT22;4154;48.810;9.012;2022-09-24T02:36:58;11.40;99.90
8226;DHT22;4154;48.810;9.012;2022-09-24T02:39:27;11.50;99.90
8226;DHT22;4154;48.810;9.012;2022-09-24T02:41:54;11.40;99.90
8226;DHT22;4154;48.810;9.012;2022-09-24T02:44:21;11.40;99.90
8226;DHT22;4154;48.810;9.012;2022-09-24T02:46:47;11.30;99.90
8226;DHT22;4154;48.810;9.012;2022-09-24T02:49:14;11.30;99.90
8226;DHT22;4154;48.810;9.012;2022-09-24T02:51:41;11.40;99.90
8226;DHT22;4154;48.810;9.012;2022-09-24T02:54:08;11.40;99.90
8226;DHT22;4154;48.810;9.012;2022-09-24T02:56:35;11.40;99.90
8226;DHT22;4154;48.810;9.012;2022-09-24T02:59:02;11.40;99.90
8226;DHT22;4154;48.810;9.012;2022-09-24T03:01:29;11.40;99.90
8226;DHT22;4154;48.810;9.012;2022-09-24T03:03:55;11.40;99.90
8226;DHT22;4154;48.810;9.012;2022-09-24T03:06:21;11.40;99.90
8226;DHT22;4154;48.810;9.012;2022-09-24T03:08:49;11.40;99.90
8226;DHT22;4154;48.810;9.012;2022-09-24T03:11:16;11.40;99.90
8226;DHT22;4154;48.810;9.012;2022-09-24T03:13:42;11.40;99.90
8226;DHT22;4154;48.810;9.012;2022-09-24T03:16:07;11.40;99.90
8226;DHT22;4154;48.810;9.012;2022-09-24T03:18:34;11.40;99.90
8226;DHT22;4154;48.810;9.012;2022-09-24T03:21:03;11.30;99.90
8226;DHT22;4154;48.810;9.012;2022-09-24T03:23:30;11.40;99.90
8226;DHT22;4154;48.810;9.012;2022-09-24T03:28:23;11.40;99.90
8226;DHT22;4154;48.810;9.012;2022-09-24T03:30:49;11.40;99.90
8226;DHT22;4154;48.810;9.012;2022-09-24T03:33:36;11.60;99.90
8226;DHT22;4154;48.810;9.012;2022-09-24T03:36:20;11.40;99.90
8226;DHT22;4154;48.810;9.012;2022-09-24T03:38:48;11.40;99.90
8226;DHT22;4154;48.810;9.012;2022-09-24T03:41:16;11.40;99.90
8226;DHT22;4154;48.810;9.012;2022-09-24T03:43:43;11.40;99.90
8226;DHT22;4154;48.810;9.012;2022-09-24T03:46:10;11.40;99.90
8226;DHT22;4154;48.810;9.012;2022-09-24T03:48:38;11.40;99.90
8226;DHT22;4154;48.810;9.012;2022-09-24T03:51:06;11.40;99.90
8226;DHT22;4154;48.810;9.012;2022-09-24T03:53:37;11.40;99.90
8226;DHT22;4154;48.810;9.012;2022-09-24T03:56:04;11.40;99.90
8226;DHT22;4154;48.810;9.012;2022-09-24T03:58:32;11.40;99.90
8226;DHT22;4154;48.810;9.012;2022-09-24T04:01:02;11.40;99.90
8226;DHT22;4154;48.810;9.012;2022-09-24T04:05:55;11.40;99.90
8226;DHT22;4154;48.810;9.012;2022-09-24T04:08:21;11.40;99.90
8226;DHT22;4154;48.810;9.012;2022-09-24T04:10:49;11.40;99.90
8226;DHT22;4154;48.810;9.012;2022-09-24T04:13:18;11.20;99.90
8226;DHT22;4154;48.810;9.012;2022-09-24T04:15:44;11.50;99.90
8226;DHT22;4154;48.810;9.012;2022-09-24T04:18:10;11.50;99.90
8226;DHT22;4154;48.810;9.012;2022-09-24T04:20:36;11.50;99.90
8226;DHT22;4154;48.810;9.012;2022-09-24T04:23:02;11.50;99.90
8226;DHT22;4154;48.810;9.012;2022-09-24T04:25:30;11.50;99.90
8226;DHT22;4154;48.810;9.012;2022-09-24T04:28:02;11.50;99.90
8226;DHT22;4154;48.810;9.012;2022-09-24T04:30:31;11.60;99.90
8226;DHT22;4154;48.810;9.012;2022-09-24T04:32:58;11.50;99.90
8226;DHT22;4154;48.810;9.012;2022-09-24T04:35:29;11.60;99.90
8226;DHT22;4154;48.810;9.012;2022-09-24T04:37:56;11.60;99.90
8226;DHT22;4154;48.810;9.012;2022-09-24T04:40:23;11.60;99.90
8226;DHT22;4154;48.810;9.012;2022-09-24T04:42:49;11.50;99.90
8226;DHT22;4154;48.810;9.012;2022-09-24T04:45:15;11.60;99.90
8226;DHT22;4154;48.810;9.012;2022-09-24T04:47:44;11.60;99.90
8226;DHT22;4154;48.810;9.012;2022-09-24T04:50:12;11.60;99.90
8226;DHT22;4154;48.810;9.012;2022-09-24T04:52:38;11.60;99.90
8226;DHT22;4154;48.810;9.012;2022-09-24T04:55:05;11.60;99.90
8226;DHT22;4154;48.810;9.012;2022-09-24T04:57:31;11.60;99.90
8226;DHT22;4154;48.810;9.012;2022-09-24T05:00:06;11.60;99.90
8226;DHT22;4154;48.810;9.012;2022-09-24T05:02:34;11.60;99.90
8226;DHT22;4154;48.810;9.012;2022-09-24T05:04:59;11.70;99.90
8226;DHT22;4154;48.810;9.012;2022-09-24T05:07:25;11.70;99.90
8226;DHT22;4154;48.810;9.012;2022-09-24T05:09:51;11.70;99.90
8226;DHT22;4154;48.810;9.012;2022-09-24T05:12:17;11.70;99.90
8226;DHT22;4154;48.810;9.012;2022-09-24T05:14:44;11.70;99.90
8226;DHT22;4154;48.810;9.012;2022-09-24T05:17:10;11.70;99.90
8226;DHT22;4154;48.810;9.012;2022-09-24T05:19:36;11.70;99.90
8226;DHT22;4154;48.810;9.012;2022-09-24T05:22:01;11.70;99.90
8226;DHT22;4154;48.810;9.012;2022-09-24T05:24:27;11.70;99.90
8226;DHT22;4154;48.810;9.012;2022-09-24T05:26:53;11.70;99.90
8226;DHT22;4154;48.810;9.012;2022-09-24T05:29:38;11.70;99.90
8226;DHT22;4154;48.810;9.012;2022-09-24T05:32:07;11.70;99.90
8226;DHT22;4154;48.810;9.012;2022-09-24T05:34:35;11.70;99.90
8226;DHT22;4154;48.810;9.012;2022-09-24T05:37:01;11.70;99.90
8226;DHT22;4154;48.810;9.012;2022-09-24T05:39:27;11.70;99.90
8226;DHT22;4154;48.810;9.012;2022-09-24T05:44:20;11.70;99.90
8226;DHT22;4154;48.810;9.012;2022-09-24T05:46:47;11.80;99.90
8226;DHT22;4154;48.810;9.012;2022-09-24T05:49:14;11.70;99.90
8226;DHT22;4154;48.810;9.012;2022-09-24T05:51:39;11.80;99.90
8226;DHT22;4154;48.810;9.012;2022-09-24T05:54:05;11.80;99.90
8226;DHT22;4154;48.810;9.012;2022-09-24T05:56:31;11.80;99.90
8226;DHT22;4154;48.810;9.012;2022-09-24T05:58:57;11.90;99.90
8226;DHT22;4154;48.810;9.012;2022-09-24T06:01:26;11.90;99.90
8226;DHT22;4154;48.810;9.012;2022-09-24T06:03:57;11.90;99.90
8226;DHT22;4154;48.810;9.012;2022-09-24T06:06:24;11.90;99.90
8226;DHT22;4154;48.810;9.012;2022-09-24T06:08:51;11.80;99.90
8226;DHT22;4154;48.810;9.012;2022-09-24T06:11:17;12.00;99.90
8226;DHT22;4154;48.810;9.012;2022-09-24T06:13:44;12.00;99.90
8226;DHT22;4154;48.810;9.012;2022-09-24T06:16:10;11.90;99.90
8226;DHT22;4154;48.810;9.012;2022-09-24T06:18:41;12.00;99.90
8226;DHT22;4154;48.810;9.012;2022-09-24T06:21:12;12.00;99.90
8226;DHT22;4154;48.810;9.012;2022-09-24T06:23:41;12.00;99.90
8226;DHT22;4154;48.810;9.012;2022-09-24T06:26:09;12.00;99.90
8226;DHT22;4154;48.810;9.012;2022-09-24T06:28:37;12.10;99.90
8226;DHT22;4154;48.810;9.012;2022-09-24T06:31:03;12.10;99.90
8226;DHT22;4154;48.810;9.012;2022-09-24T06:33:30;12.00;99.90
8226;DHT22;4154;48.810;9.012;2022-09-24T06:36:01;12.10;99.90
8226;DHT22;4154;48.810;9.012;2022-09-24T06:38:28;12.20;99.90
8226;DHT22;4154;48.810;9.012;2022-09-24T06:41:02;12.10;99.90
8226;DHT22;4154;48.810;9.012;2022-09-24T06:43:30;12.30;99.90
8226;DHT22;4154;48.810;9.012;2022-09-24T06:45:57;12.20;99.90
8226;DHT22;4154;48.810;9.012;2022-09-24T06:48:25;12.30;99.90
8226;DHT22;4154;48.810;9.012;2022-09-24T06:50:51;12.30;99.90
8226;DHT22;4154;48.810;9.012;2022-09-24T06:55:45;12.40;99.90
8226;DHT22;4154;48.810;9.012;2022-09-24T06:58:16;12.40;99.90
8226;DHT22;4154;48.810;9.012;2022-09-24T07:00:53;12.40;99.90
8226;DHT22;4154;48.810;9.012;2022-09-24T07:03:23;12.40;99.90
8226;DHT22;4154;48.810;9.012;2022-09-24T07:05:50;12.40;99.90
8226;DHT22;4154;48.810;9.012;2022-09-24T07:08:16;12.50;99.90
8226;DHT22;4154;48.810;9.012;2022-09-24T07:10:43;12.50;99.90
8226;DHT22;4154;48.810;9.012;2022-09-24T07:13:12;12.50;99.90
8226;DHT22;4154;48.810;9.012;2022-09-24T07:15:39;12.60;99.90
8226;DHT22;4154;48.810;9.012;2022-09-24T07:18:06;12.60;99.90
8226;DHT22;4154;48.810;9.012;2022-09-24T07:20:32;12.60;99.90
8226;DHT22;4154;48.810;9.012;2022-09-24T07:25:26;12.70;99.90
8226;DHT22;4154;48.810;9.012;2022-09-24T07:27:51;12.70;99.90
8226;DHT22;4154;48.810;9.012;2022-09-24T07:30:17;12.70;99.90
8226;DHT22;4154;48.810;9.012;2022-09-24T07:32:43;12.80;99.90
8226;DHT22;4154;48.810;9.012;2022-09-24T07:35:09;12.80;99.90
8226;DHT22;4154;48.810;9.012;2022-09-24T07:37:34;12.80;99.90
8226;DHT22;4154;48.810;9.012;2022-09-24T07:40:00;12.80;99.90
8226;DHT22;4154;48.810;9.012;2022-09-24T07:42:27;12.90;99.90
8226;DHT22;4154;48.810;9.012;2022-09-24T07:44:53;12.90;99.90
8226;DHT22;4154;48.810;9.012;2022-09-24T07:47:21;13.00;99.90
8226;DHT22;4154;48.810;9.012;2022-09-24T07:49:47;13.00;99.90
8226;DHT22;4154;48.810;9.012;2022-09-24T07:52:13;13.00;99.90
8226;DHT22;4154;48.810;9.012;2022-09-24T07:54:38;13.00;99.90
8226;DHT22;4154;48.810;9.012;2022-09-24T07:57:11;13.10;99.90
8226;DHT22;4154;48.810;9.012;2022-09-24T07:59:38;13.10;99.90
8226;DHT22;4154;48.810;9.012;2022-09-24T08:02:14;13.10;99.90
8226;DHT22;4154;48.810;9.012;2022-09-24T08:04:41;13.20;99.90
8226;DHT22;4154;48.810;9.012;2022-09-24T08:07:09;13.20;99.90
8226;DHT22;4154;48.810;9.012;2022-09-24T08:09:36;13.30;99.90
8226;DHT22;4154;48.810;9.012;2022-09-24T08:12:02;13.30;99.90
8226;DHT22;4154;48.810;9.012;2022-09-24T08:14:28;13.30;99.90
8226;DHT22;4154;48.810;9.012;2022-09-24T08:16:54;13.30;99.90
8226;DHT22;4154;48.810;9.012;2022-09-24T08:19:21;13.40;99.90
8226;DHT22;4154;48.810;9.012;2022-09-24T08:21:46;13.40;99.90
8226;DHT22;4154;48.810;9.012;2022-09-24T08:24:13;13.40;99.90
8226;DHT22;4154;48.810;9.012;2022-09-24T08:26:40;13.40;99.90
8226;DHT22;4154;48.810;9.012;2022-09-24T08:29:06;13.50;99.90
8226;DHT22;4154;48.810;9.012;2022-09-24T08:31:32;13.50;99.90
8226;DHT22;4154;48.810;9.012;2022-09-24T08:34:01;13.60;99.90
8226;DHT22;4154;48.810;9.012;2022-09-24T08:36:27;13.60;99.90
8226;DHT22;4154;48.810;9.012;2022-09-24T08:38:54;13.70;99.90
8226;DHT22;4154;48.810;9.012;2022-09-24T08:55:34;14.20;99.90
8226;DHT22;4154;48.810;9.012;2022-09-24T09:09:22;14.60;99.90
8226;DHT22;4154;48.810;9.012;2022-09-24T09:11:57;14.60;99.90
8226;DHT22;4154;48.810;9.012;2022-09-24T09:20:40;14.70;99.90
8226;DHT22;4154;48.810;9.012;2022-09-24T09:23:15;14.70;99.90
8226;DHT22;4154;48.810;9.012;2022-09-24T09:25:58;14.60;99.90
8226;DHT22;4154;48.810;9.012;2022-09-24T09:28:28;14.60;99.90
8226;DHT22;4154;48.810;9.012;2022-09-24T09:45:17;14.60;99.90
8226;DHT22;4154;48.810;9.012;2022-09-24T09:47:54;14.50;99.90
8226;DHT22;4154;48.810;9.012;2022-09-24T09:53:01;14.50;99.90
8226;DHT22;4154;48.810;9.012;2022-09-24T09:55:34;14.60;99.90
8226;DHT22;4154;48.810;9.012;2022-09-24T10:00:39;14.60;99.90
8226;DHT22;4154;48.810;9.012;2022-09-24T10:03:18;14.70;99.90
8226;DHT22;4154;48.810;9.012;2022-09-24T10:06:01;14.70;99.90
8226;DHT22;4154;48.810;9.012;2022-09-24T10:08:29;14.80;99.90
8226;DHT22;4154;48.810;9.012;2022-09-24T10:10:57;14.80;99.90
8226;DHT22;4154;48.810;9.012;2022-09-24T10:13:25;14.80;99.90
8226;DHT22;4154;48.810;9.012;2022-09-24T10:15:57;14.90;99.90
8226;DHT22;4154;48.810;9.012;2022-09-24T10:18:35;14.90;99.90
8226;DHT22;4154;48.810;9.012;2022-09-24T10:21:07;14.90;99.90
8226;DHT22;4154;48.810;9.012;2022-09-24T10:23:44;14.90;99.90
8226;DHT22;4154;48.810;9.012;2022-09-24T10:26:14;14.90;99.90
8226;DHT22;4154;48.810;9.012;2022-09-24T10:28:48;15.00;99.90
8226;DHT22;4154;48.810;9.012;2022-09-24T10:31:36;15.00;99.90
8226;DHT22;4154;48.810;9.012;2022-09-24T10:34:20;15.00;99.90
8226;DHT22;4154;48.810;9.012;2022-09-24T10:36:53;15.10;99.90
8226;DHT22;4154;48.810;9.012;2022-09-24T10:39:27;15.10;99.90
8226;DHT22;4154;48.810;9.012;2022-09-24T10:41:55;15.10;99.90
8226;DHT22;4154;48.810;9.012;2022-09-24T10:44:22;15.10;99.90
8226;DHT22;4154;48.810;9.012;2022-09-24T10:50:16;15.20;99.90
8226;DHT22;4154;48.810;9.012;2022-09-24T10:52:56;15.20;99.90
8226;DHT22;4154;48.810;9.012;2022-09-24T10:58:54;15.30;99.90
8226;DHT22;4154;48.810;9.012;2022-09-24T11:13:28;16.00;99.90
8226;DHT22;4154;48.810;9.012;2022-09-24T11:22:13;16.00;99.90
8226;DHT22;4154;48.810;9.012;2022-09-24T11:25:16;16.00;99.90
8226;DHT22;4154;48.810;9.012;2022-09-24T11:34:00;16.00;99.90
8226;DHT22;4154;48.810;9.012;2022-09-24T11:42:24;16.00;99.90
8226;DHT22;4154;48.810;9.012;2022-09-24T11:54:35;15.90;99.90
8226;DHT22;4154;48.810;9.012;2022-09-24T11:57:15;15.90;99.90
8226;DHT22;4154;48.810;9.012;2022-09-24T12:00:01;15.90;99.90
8226;DHT22;4154;48.810;9.012;2022-09-24T12:11:00;15.80;99.90
8226;DHT22;4154;48.810;9.012;2022-09-24T12:13:51;15.80;99.90
8226;DHT22;4154;48.810;9.012;2022-09-24T12:16:27;15.80;99.90
8226;DHT22;4154;48.810;9.012;2022-09-24T12:21:52;15.70;99.90
8226;DHT22;4154;48.810;9.012;2022-09-24T12:24:44;15.70;99.90
8226;DHT22;4154;48.810;9.012;2022-09-24T12:27:19;15.70;99.90
8226;DHT22;4154;48.810;9.012;2022-09-24T12:33:42;15.80;99.90
8226;DHT22;4154;48.810;9.012;2022-09-24T12:39:20;15.60;99.90
8226;DHT22;4154;48.810;9.012;2022-09-24T12:41:56;15.60;99.90
8226;DHT22;4154;48.810;9.012;2022-09-24T12:44:41;15.60;99.90
8226;DHT22;4154;48.810;9.012;2022-09-24T12:47:24;15.50;99.90
8226;DHT22;4154;48.810;9.012;2022-09-24T12:49:56;15.60;99.90
8226;DHT22;4154;48.810;9.012;2022-09-24T12:52:34;15.60;99.90
8226;DHT22;4154;48.810;9.012;2022-09-24T12:55:05;15.60;99.90
8226;DHT22;4154;48.810;9.012;2022-09-24T12:58:02;15.60;99.90
8226;DHT22;4154;48.810;9.012;2022-09-24T13:00:39;15.60;99.90
8226;DHT22;4154;48.810;9.012;2022-09-24T13:03:36;15.60;99.90
8226;DHT22;4154;48.810;9.012;2022-09-24T13:06:33;15.60;99.90
8226;DHT22;4154;48.810;9.012;2022-09-24T13:09:03;15.70;99.90
8226;DHT22;4154;48.810;9.012;2022-09-24T13:14:41;15.70;99.90
8226;DHT22;4154;48.810;9.012;2022-09-24T13:17:14;15.70;99.90
8226;DHT22;4154;48.810;9.012;2022-09-24T13:19:42;15.70;99.90
8226;DHT22;4154;48.810;9.012;2022-09-24T13:27:35;15.70;99.90
8226;DHT22;4154;48.810;9.012;2022-09-24T13:30:19;15.70;99.90
8226;DHT22;4154;48.810;9.012;2022-09-24T13:39:16;15.80;99.90
8226;DHT22;4154;48.810;9.012;2022-09-24T13:44:37;15.80;99.90
8226;DHT22;4154;48.810;9.012;2022-09-24T13:49:46;15.90;99.90
8226;DHT22;4154;48.810;9.012;2022-09-24T13:52:32;15.90;99.90
8226;DHT22;4154;48.810;9.012;2022-09-24T13:55:19;15.90;99.90
8226;DHT22;4154;48.810;9.012;2022-09-24T13:57:48;15.90;99.90
8226;DHT22;4154;48.810;9.012;2022-09-24T14:00:20;16.00;99.90
8226;DHT22;4154;48.810;9.012;2022-09-24T14:03:24;16.00;99.90
8226;DHT22;4154;48.810;9.012;2022-09-24T14:05:55;16.00;99.90
8226;DHT22;4154;48.810;9.012;2022-09-24T14:08:23;16.00;99.90
8226;DHT22;4154;48.810;9.012;2022-09-24T14:10:51;15.90;99.90
8226;DHT22;4154;48.810;9.012;2022-09-24T14:13:34;16.00;99.90
8226;DHT22;4154;48.810;9.012;2022-09-24T14:16:08;15.80;99.90
8226;DHT22;4154;48.810;9.012;2022-09-24T14:18:35;15.80;99.90
8226;DHT22;4154;48.810;9.012;2022-09-24T14:23:52;15.80;99.90
8226;DHT22;4154;48.810;9.012;2022-09-24T14:26:45;15.80;99.90
8226;DHT22;4154;48.810;9.012;2022-09-24T14:29:43;15.90;99.90
8226;DHT22;4154;48.810;9.012;2022-09-24T14:32:29;15.90;99.90
8226;DHT22;4154;48.810;9.012;2022-09-24T14:35:20;15.90;99.90
8226;DHT22;4154;48.810;9.012;2022-09-24T14:38:02;15.90;99.90
8226;DHT22;4154;48.810;9.012;2022-09-24T14:40:41;15.90;99.90
8226;DHT22;4154;48.810;9.012;2022-09-24T14:46:19;15.90;99.90
8226;DHT22;4154;48.810;9.012;2022-09-24T14:48:47;15.90;99.90
8226;DHT22;4154;48.810;9.012;2022-09-24T14:51:30;15.90;99.90
8226;DHT22;4154;48.810;9.012;2022-09-24T14:54:36;15.90;99.90
8226;DHT22;4154;48.810;9.012;2022-09-24T14:59:45;15.90;99.90
8226;DHT22;4154;48.810;9.012;2022-09-24T15:05:03;15.90;99.90
8226;DHT22;4154;48.810;9.012;2022-09-24T15:07:32;15.90;99.90
8226;DHT22;4154;48.810;9.012;2022-09-24T15:10:00;15.90;99.90
8226;DHT22;4154;48.810;9.012;2022-09-24T15:12:36;16.00;99.90
8226;DHT22;4154;48.810;9.012;2022-09-24T15:15:29;15.90;99.90
8226;DHT22;4154;48.810;9.012;2022-09-24T15:17:56;15.90;99.90
8226;DHT22;4154;48.810;9.012;2022-09-24T15:20:22;15.90;99.90
8226;DHT22;4154;48.810;9.012;2022-09-24T15:22:48;15.90;99.90
8226;DHT22;4154;48.810;9.012;2022-09-24T15:25:14;15.90;99.90
8226;DHT22;4154;48.810;9.012;2022-09-24T15:27:41;15.90;99.90
8226;DHT22;4154;48.810;9.012;2022-09-24T15:30:11;15.90;99.90
8226;DHT22;4154;48.810;9.012;2022-09-24T15:32:44;15.90;99.90
8226;DHT22;4154;48.810;9.012;2022-09-24T15:35:13;15.90;99.90
8226;DHT22;4154;48.810;9.012;2022-09-24T15:37:39;15.80;99.90
8226;DHT22;4154;48.810;9.012;2022-09-24T15:40:17;15.80;99.90
8226;DHT22;4154;48.810;9.012;2022-09-24T15:42:47;15.80;99.90
8226;DHT22;4154;48.810;9.012;2022-09-24T15:45:19;15.80;99.90
8226;DHT22;4154;48.810;9.012;2022-09-24T15:47:51;15.80;99.90
8226;DHT22;4154;48.810;9.012;2022-09-24T15:50:18;15.70;99.90
8226;DHT22;4154;48.810;9.012;2022-09-24T15:52:56;15.70;99.90
8226;DHT22;4154;48.810;9.012;2022-09-24T15:55:24;15.70;99.90
8226;DHT22;4154;48.810;9.012;2022-09-24T15:57:50;15.70;99.90
8226;DHT22;4154;48.810;9.012;2022-09-24T16:00:18;15.70;99.90
8226;DHT22;4154;48.810;9.012;2022-09-24T16:02:48;15.70;99.90
8226;DHT22;4154;48.810;9.012;2022-09-24T16:05:17;15.60;99.90
8226;DHT22;4154;48.810;9.012;2022-09-24T16:07:44;15.60;99.90
8226;DHT22;4154;48.810;9.012;2022-09-24T16:10:11;15.60;99.90
8226;DHT22;4154;48.810;9.012;2022-09-24T16:12:38;15.60;99.90
8226;DHT22;4154;48.810;9.012;2022-09-24T16:15:05;15.60;99.90
8226;DHT22;4154;48.810;9.012;2022-09-24T16:17:31;15.60;99.90
8226;DHT22;4154;48.810;9.012;2022-09-24T16:19:57;15.60;99.90
8226;DHT22;4154;48.810;9.012;2022-09-24T16:22:24;15.50;99.90
8226;DHT22;4154;48.810;9.012;2022-09-24T16:24:49;15.50;99.90
8226;DHT22;4154;48.810;9.012;2022-09-24T16:27:15;15.50;99.90
8226;DHT22;4154;48.810;9.012;2022-09-24T16:29:41;15.50;99.90
8226;DHT22;4154;48.810;9.012;2022-09-24T16:32:07;15.50;99.90
8226;DHT22;4154;48.810;9.012;2022-09-24T16:34:32;15.50;99.90
8226;DHT22;4154;48.810;9.012;2022-09-24T16:36:58;15.50;99.90
8226;DHT22;4154;48.810;9.012;2022-09-24T16:39:25;15.40;99.90
8226;DHT22;4154;48.810;9.012;2022-09-24T16:41:50;15.40;99.90
8226;DHT22;4154;48.810;9.012;2022-09-24T16:44:17;15.40;99.90
8226;DHT22;4154;48.810;9.012;2022-09-24T16:46:43;15.40;99.90
8226;DHT22;4154;48.810;9.012;2022-09-24T16:49:10;15.40;99.90
8226;DHT22;4154;48.810;9.012;2022-09-24T16:51:36;15.40;99.90
8226;DHT22;4154;48.810;9.012;2022-09-24T16:54:03;15.30;99.90
8226;DHT22;4154;48.810;9.012;2022-09-24T16:56:32;15.30;99.90
8226;DHT22;4154;48.810;9.012;2022-09-24T16:58:57;15.30;99.90
8226;DHT22;4154;48.810;9.012;2022-09-24T17:01:23;15.30;99.90
8226;DHT22;4154;48.810;9.012;2022-09-24T17:03:53;15.30;99.90
8226;DHT22;4154;48.810;9.012;2022-09-24T17:06:26;15.30;99.90
8226;DHT22;4154;48.810;9.012;2022-09-24T17:08:54;15.30;99.90
8226;DHT22;4154;48.810;9.012;2022-09-24T17:11:39;15.30;99.90
8226;DHT22;4154;48.810;9.012;2022-09-24T17:14:06;15.20;99.90
8226;DHT22;4154;48.810;9.012;2022-09-24T17:16:35;15.20;99.90
8226;DHT22;4154;48.810;9.012;2022-09-24T17:19:01;15.20;99.90
8226;DHT22;4154;48.810;9.012;2022-09-24T17:21:26;15.20;99.90
8226;DHT22;4154;48.810;9.012;2022-09-24T17:23:55;15.20;99.90
8226;DHT22;4154;48.810;9.012;2022-09-24T17:26:21;15.20;99.90
8226;DHT22;4154;48.810;9.012;2022-09-24T17:28:50;15.20;99.90
8226;DHT22;4154;48.810;9.012;2022-09-24T17:31:19;15.10;99.90
8226;DHT22;4154;48.810;9.012;2022-09-24T17:33:59;15.10;99.90
8226;DHT22;4154;48.810;9.012;2022-09-24T17:36:28;15.10;99.90
8226;DHT22;4154;48.810;9.012;2022-09-24T17:38:55;15.10;99.90
8226;DHT22;4154;48.810;9.012;2022-09-24T17:41:22;15.10;99.90
8226;DHT22;4154;48.810;9.012;2022-09-24T17:43:49;15.10;99.90
8226;DHT22;4154;48.810;9.012;2022-09-24T17:46:18;15.10;99.90
8226;DHT22;4154;48.810;9.012;2022-09-24T17:48:48;15.10;99.90
8226;DHT22;4154;48.810;9.012;2022-09-24T17:53:48;15.10;99.90
8226;DHT22;4154;48.810;9.012;2022-09-24T17:56:16;15.10;99.90
8226;DHT22;4154;48.810;9.012;2022-09-24T17:58:44;15.10;99.90
8226;DHT22;4154;48.810;9.012;2022-09-24T18:01:19;15.10;99.90
8226;DHT22;4154;48.810;9.012;2022-09-24T18:03:50;15.10;99.90
8226;DHT22;4154;48.810;9.012;2022-09-24T18:06:17;15.10;99.90
8226;DHT22;4154;48.810;9.012;2022-09-24T18:08:44;15.10;99.90
8226;DHT22;4154;48.810;9.012;2022-09-24T18:11:16;15.10;99.90
8226;DHT22;4154;48.810;9.012;2022-09-24T18:13:48;15.00;99.90
8226;DHT22;4154;48.810;9.012;2022-09-24T18:16:16;15.00;99.90
8226;DHT22;4154;48.810;9.012;2022-09-24T18:18:43;15.00;99.90
8226;DHT22;4154;48.810;9.012;2022-09-24T18:21:11;15.00;99.90
8226;DHT22;4154;48.810;9.012;2022-09-24T18:23:38;15.00;99.90
8226;DHT22;4154;48.810;9.012;2022-09-24T18:26:10;15.00;99.90
8226;DHT22;4154;48.810;9.012;2022-09-24T18:28:38;15.00;99.90
8226;DHT22;4154;48.810;9.012;2022-09-24T18:31:07;15.00;99.90
8226;DHT22;4154;48.810;9.012;2022-09-24T18:33:36;14.90;99.90
8226;DHT22;4154;48.810;9.012;2022-09-24T18:36:07;14.90;99.90
8226;DHT22;4154;48.810;9.012;2022-09-24T18:38:35;14.90;99.90
8226;DHT22;4154;48.810;9.012;2022-09-24T18:41:08;14.90;99.90
8226;DHT22;4154;48.810;9.012;2022-09-24T18:43:35;14.90;99.90
8226;DHT22;4154;48.810;9.012;2022-09-24T18:46:03;14.90;99.90
8226;DHT22;4154;48.810;9.012;2022-09-24T18:48:31;14.80;99.90
8226;DHT22;4154;48.810;9.012;2022-09-24T18:50:58;14.80;99.90
8226;DHT22;4154;48.810;9.012;2022-09-24T18:53:24;14.60;99.90
8226;DHT22;4154;48.810;9.012;2022-09-24T18:55:51;14.80;99.90
8226;DHT22;4154;48.810;9.012;2022-09-24T18:58:17;14.80;99.90
8226;DHT22;4154;48.810;9.012;2022-09-24T19:00:43;14.80;99.90
8226;DHT22;4154;48.810;9.012;2022-09-24T19:03:23;14.70;99.90
8226;DHT22;4154;48.810;9.012;2022-09-24T19:05:53;14.80;99.90
8226;DHT22;4154;48.810;9.012;2022-09-24T19:08:23;14.80;99.90
8226;DHT22;4154;48.810;9.012;2022-09-24T19:10:50;14.80;99.90
8226;DHT22;4154;48.810;9.012;2022-09-24T19:13:20;14.60;99.90
8226;DHT22;4154;48.810;9.012;2022-09-24T19:15:46;14.70;99.90
8226;DHT22;4154;48.810;9.012;2022-09-24T19:18:14;14.80;99.90
8226;DHT22;4154;48.810;9.012;2022-09-24T19:20:44;14.80;99.90
8226;DHT22;4154;48.810;9.012;2022-09-24T19:23:16;14.70;99.90
8226;DHT22;4154;48.810;9.012;2022-09-24T19:25:42;14.70;99.90